Time;durP1;ratioP1;P1;durP2;ratioP2;P2;SDS_P1;SDS_P2;PMS_P1;PMS_P2;Temp;Humidity;BMP_temperature;BMP_pressure;BME280_temperature;BME280_humidity;BME280_pressure;Samples;Min_cycle;Max_cycle;Signal;HPM_P1;HPM_P2
2023/03/11 00:00:17;;;;;;;10.07;1.80;;;0.70;99.90;;;;;;5127050;27;20053;-64
2023/03/11 00:02:48;;;;;;;9.95;2.00;;;0.00;99.90;;;;;;5108638;27;20100;-67
2023/03/11 00:05:18;;;;;;;8.90;2.00;;;0.80;99.90;;;;;;5126223;27;20046;-61
2023/03/11 00:07:44;;;;;;;11.63;1.88;;;0.80;99.90;;;;;;5126795;27;20057;-66
2023/03/11 00:10:25;;;;;;;8.70;1.70;;;0.90;99.90;;;;;;5126976;27;20046;-70
2023/03/11 00:12:51;;;;;;;7.10;1.42;;;0.10;99.90;;;;;;5127356;27;20050;-61
2023/03/11 00:15:18;;;;;;;13.88;1.95;;;0.80;99.90;;;;;;5126848;27;20058;-68
2023/03/11 00:17:43;;;;;;;9.95;1.65;;;0.50;99.90;;;;;;5127777;27;20134;-71
2023/03/11 00:20:23;;;;;;;12.05;1.85;;;0.90;99.90;;;;;;5127528;27;20039;-73
2023/03/11 00:22:50;;;;;;;8.80;2.08;;;0.10;99.90;;;;;;5127668;27;20055;-68
2023/03/11 00:25:16;;;;;;;8.63;1.40;;;0.10;99.90;;;;;;5128001;27;20047;-62
2023/03/11 00:27:42;;;;;;;7.38;1.67;;;0.80;99.90;;;;;;5127411;27;20039;-73
2023/03/11 00:30:09;;;;;;;13.48;2.13;;;0.30;99.90;;;;;;5127868;27;20054;-64
2023/03/11 00:32:35;;;;;;;10.68;2.45;;;0.50;99.90;;;;;;5128009;27;20096;-65
2023/03/11 00:35:01;;;;;;;9.05;1.80;;;0.60;99.90;;;;;;5108437;27;20486;-64
2023/03/11 00:37:27;;;;;;;9.50;2.20;;;0.90;99.90;;;;;;5127223;27;20046;-70
2023/03/11 00:39:53;;;;;;;9.48;2.20;;;0.60;99.90;;;;;;5127643;27;20437;-68
2023/03/11 00:42:19;;;;;;;11.85;2.22;;;0.80;99.90;;;;;;5126929;27;20063;-65
2023/03/11 00:44:44;;;;;;;12.23;2.40;;;-0.10;99.90;;;;;;5129147;27;20068;-67
2023/03/11 00:47:11;;;;;;;11.68;2.28;;;-0.30;99.90;;;;;;5135762;27;20425;-68
2023/03/11 00:49:36;;;;;;;14.43;2.28;;;0.60;99.90;;;;;;5126973;27;20338;-72
2023/03/11 00:52:03;;;;;;;10.73;2.20;;;-0.10;99.90;;;;;;5126139;27;20426;-68
2023/03/11 00:54:29;;;;;;;11.15;2.45;;;-0.30;99.90;;;;;;5127207;27;20047;-62
2023/03/11 00:56:55;;;;;;;12.82;2.35;;;0.20;99.90;;;;;;5127153;27;20035;-61
2023/03/11 00:59:21;;;;;;;12.55;2.05;;;0.30;99.90;;;;;;5108743;27;20047;-70
2023/03/11 01:01:47;;;;;;;16.48;2.35;;;0.80;99.90;;;;;;5125944;27;20058;-73
2023/03/11 01:04:13;;;;;;;9.93;2.20;;;0.20;99.90;;;;;;5126798;27;20035;-66
2023/03/11 01:06:38;;;;;;;12.27;2.58;;;0.40;99.90;;;;;;5127028;27;20039;-69
2023/03/11 01:09:04;;;;;;;13.05;2.15;;;0.30;99.90;;;;;;5126065;27;20065;-68
2023/03/11 01:11:30;;;;;;;7.40;1.50;;;-0.10;99.90;;;;;;5126826;27;20084;-71
2023/03/11 01:13:56;;;;;;;10.65;2.00;;;-0.50;99.90;;;;;;5126925;27;20043;-62
2023/03/11 01:16:22;;;;;;;10.52;1.70;;;0.30;99.90;;;;;;5106799;27;20116;-68
2023/03/11 01:18:47;;;;;;;10.05;1.65;;;0.90;99.90;;;;;;5126165;27;20043;-67
2023/03/11 01:21:14;;;;;;;4.70;1.50;;;0.10;99.90;;;;;;5126630;27;20093;-66
2023/03/11 01:23:40;;;;;;;7.00;1.42;;;-0.30;99.90;;;;;;5126562;27;20131;-70
2023/03/11 01:26:06;;;;;;;6.18;1.58;;;0.20;99.90;;;;;;5126011;27;20043;-65
2023/03/11 01:28:31;;;;;;;6.95;1.10;;;-0.30;99.90;;;;;;5126294;27;20043;-67
2023/03/11 01:30:57;;;;;;;6.20;1.00;;;0.10;99.90;;;;;;5125627;27;20065;-70
2023/03/11 01:33:23;;;;;;;4.57;1.10;;;0.50;99.90;;;;;;5090375;27;20047;-69
2023/03/11 01:35:48;;;;;;;5.88;1.10;;;0.10;99.90;;;;;;5125797;27;20039;-73
2023/03/11 01:38:15;;;;;;;5.25;0.98;;;1.20;99.90;;;;;;5126180;27;20047;-61
2023/03/11 01:40:47;;;;;;;5.25;1.10;;;0.10;99.90;;;;;;5126421;27;20039;-70
2023/03/11 01:43:44;;;;;;;6.95;1.10;;;0.30;99.90;;;;;;5125898;27;20082;-62
2023/03/11 01:46:30;;;;;;;6.35;1.30;;;0.00;99.90;;;;;;5136316;27;20107;-69
2023/03/11 01:49:01;;;;;;;7.10;0.93;;;0.10;99.90;;;;;;5126426;27;20046;-65
2023/03/11 01:51:42;;;;;;;5.10;0.80;;;2.30;99.90;;;;;;5126543;27;20172;-71
2023/03/11 01:54:26;;;;;;;8.30;1.42;;;0.30;99.90;;;;;;5126286;27;20042;-72
2023/03/11 01:56:53;;;;;;;6.78;1.25;;;0.40;99.90;;;;;;5125575;27;20039;-71
2023/03/11 01:59:25;;;;;;;4.90;1.15;;;0.20;99.90;;;;;;5125903;27;20776;-72
2023/03/11 02:02:11;;;;;;;6.90;1.10;;;0.20;99.90;;;;;;5125049;27;20164;-68
2023/03/11 02:04:37;;;;;;;6.75;1.02;;;0.40;99.90;;;;;;5125681;27;20122;-72
2023/03/11 02:07:03;;;;;;;5.57;0.93;;;0.10;99.90;;;;;;5125634;27;20035;-64
2023/03/11 02:09:29;;;;;;;7.45;0.88;;;0.10;99.90;;;;;;5126479;27;20055;-73
2023/03/11 02:11:56;;;;;;;5.85;0.93;;;0.10;99.90;;;;;;5124721;27;20425;-73
2023/03/11 02:14:23;;;;;;;5.15;1.00;;;0.10;99.90;;;;;;5125761;27;20825;-71
2023/03/11 02:16:48;;;;;;;2.47;0.77;;;0.30;99.90;;;;;;5124737;27;20608;-70
2023/03/11 02:19:29;;;;;;;4.03;0.93;;;0.90;99.90;;;;;;5106079;27;20039;-71
2023/03/11 02:21:56;;;;;;;2.80;0.80;;;0.00;99.90;;;;;;5125286;27;20047;-70
2023/03/11 02:24:48;;;;;;;5.68;1.00;;;-0.10;99.90;;;;;;5124948;27;20035;-70
2023/03/11 02:27:17;;;;;;;4.40;0.80;;;-0.20;99.90;;;;;;5125513;27;20084;-67
2023/03/11 02:29:46;;;;;;;3.50;0.82;;;0.40;99.90;;;;;;5125148;27;20091;-57
2023/03/11 02:32:12;;;;;;;7.50;0.93;;;0.00;99.90;;;;;;5124784;27;20413;-70
2023/03/11 02:34:38;;;;;;;3.85;0.80;;;-0.30;99.90;;;;;;5125086;27;20054;-59
2023/03/11 02:37:07;;;;;;;3.00;0.60;;;0.90;99.90;;;;;;5125065;27;20047;-68
2023/03/11 02:39:35;;;;;;;5.35;0.88;;;1.10;99.90;;;;;;5106507;27;20035;-69
2023/03/11 02:42:10;;;;;;;8.43;1.75;;;-0.30;99.90;;;;;;5125242;27;20130;-62
2023/03/11 02:44:36;;;;;;;;;;;0.00;99.90;;;;;;5127679;27;20047;-62
2023/03/11 02:47:02;;;;;;;2.83;0.82;;;1.90;99.90;;;;;;5133693;27;19923;-59
2023/03/11 02:49:30;;;;;;;2.90;0.70;;;-0.30;99.90;;;;;;5125504;28;20152;-69
2023/03/11 02:51:55;;;;;;;4.20;0.80;;;-0.40;99.90;;;;;;5124963;28;20035;-69
2023/03/11 02:54:21;;;;;;;6.35;1.25;;;-0.30;99.90;;;;;;5124286;28;20051;-67
2023/03/11 02:56:47;;;;;;;4.45;1.25;;;-0.50;99.90;;;;;;5125191;28;20039;-64
2023/03/11 02:59:12;;;;;;;5.35;0.98;;;1.70;99.90;;;;;;5125564;28;20638;-68
2023/03/11 03:01:38;;;;;;;5.38;0.98;;;-0.40;99.90;;;;;;5123776;28;20052;-69
2023/03/11 03:04:03;;;;;;;4.57;0.80;;;-0.60;99.90;;;;;;5125433;28;20095;-72
2023/03/11 03:06:29;;;;;;;7.45;1.23;;;0.60;99.90;;;;;;5106732;28;20054;-64
2023/03/11 03:08:55;;;;;;;5.22;1.02;;;1.50;99.90;;;;;;5125158;28;20829;-64
2023/03/11 03:11:20;;;;;;;4.65;0.80;;;1.20;99.90;;;;;;5124281;28;20122;-71
2023/03/11 03:13:46;;;;;;;3.63;0.90;;;-0.60;99.90;;;;;;5125423;28;20508;-69
2023/03/11 03:16:12;;;;;;;7.32;0.90;;;-0.50;99.90;;;;;;5121132;22;20094;-70
2023/03/11 03:18:38;;;;;;;6.07;0.75;;;0.90;99.90;;;;;;5014824;28;20046;-63
2023/03/11 03:21:04;;;;;;;4.63;0.90;;;-0.60;99.90;;;;;;5023454;28;20140;-63
2023/03/11 03:23:33;;;;;;;4.18;1.00;;;-0.70;99.90;;;;;;5024936;28;20045;-72
2023/03/11 03:26:00;;;;;;;6.00;1.40;;;-0.70;99.90;;;;;;5028054;28;20045;-59
2023/03/11 03:28:26;;;;;;;2.60;0.80;;;-1.00;99.90;;;;;;5027319;28;20054;-66
2023/03/11 03:30:52;;;;;;;5.55;1.13;;;-0.70;99.90;;;;;;5027129;28;20034;-67
2023/03/11 03:33:18;;;;;;;8.82;1.00;;;-1.00;99.90;;;;;;5027799;28;20040;-72
2023/03/11 03:35:45;;;;;;;3.60;0.70;;;-1.20;99.90;;;;;;5026983;28;20041;-61
2023/03/11 03:38:11;;;;;;;4.82;0.88;;;-1.00;99.90;;;;;;5010034;28;20365;-64
2023/03/11 03:40:37;;;;;;;5.35;1.00;;;-0.80;99.90;;;;;;5027652;28;20087;-71
2023/03/11 03:43:03;;;;;;;3.60;0.93;;;-0.90;99.90;;;;;;5027967;28;20091;-71
2023/03/11 03:45:29;;;;;;;4.18;1.00;;;-1.30;99.90;;;;;;5016580;28;20384;-69
2023/03/11 03:47:55;;;;;;;2.90;0.70;;;-1.20;99.90;;;;;;5022345;28;20049;-57
2023/03/11 03:50:21;;;;;;;6.05;1.00;;;-0.90;99.90;;;;;;5009389;28;20049;-67
2023/03/11 03:52:47;;;;;;;4.60;1.00;;;-1.20;99.90;;;;;;5026752;28;20045;-71
2023/03/11 03:55:12;;;;;;;4.13;1.20;;;-1.20;99.90;;;;;;5027094;28;20120;-69
2023/03/11 03:57:38;;;;;;;4.85;1.00;;;-1.10;99.90;;;;;;5027223;28;20057;-59
2023/03/11 04:00:07;;;;;;;4.03;1.13;;;-0.80;99.90;;;;;;5009091;28;20152;-61
2023/03/11 04:02:33;;;;;;;3.53;0.93;;;-1.00;99.90;;;;;;5027293;28;20053;-70
2023/03/11 04:04:59;;;;;;;9.68;1.00;;;-1.20;99.90;;;;;;5027134;28;20499;-61
2023/03/11 04:07:25;;;;;;;5.90;0.95;;;-1.40;99.90;;;;;;5027002;28;20052;-62
2023/03/11 04:09:50;;;;;;;5.88;0.80;;;-1.40;99.90;;;;;;5026384;28;20038;-67
2023/03/11 04:12:16;;;;;;;5.85;1.15;;;-1.30;99.90;;;;;;5027101;28;20491;-66
2023/03/11 04:14:43;;;;;;;3.25;0.90;;;-1.20;99.90;;;;;;5025705;28;20095;-71
2023/03/11 04:17:12;;;;;;;5.50;1.23;;;-0.80;99.90;;;;;;5026377;28;20049;-65
2023/03/11 04:19:39;;;;;;;5.47;0.85;;;-1.20;99.90;;;;;;5026929;28;20045;-70
2023/03/11 04:22:05;;;;;;;6.22;1.33;;;-1.40;99.90;;;;;;5027136;28;20037;-67
2023/03/11 04:24:31;;;;;;;5.97;0.90;;;-1.10;99.90;;;;;;5026380;28;20045;-60
2023/03/11 04:26:56;;;;;;;7.70;1.30;;;-1.50;99.90;;;;;;5026165;28;20042;-62
2023/03/11 04:29:22;;;;;;;6.32;1.10;;;-1.10;99.90;;;;;;5026651;28;20041;-67
2023/03/11 04:31:48;;;;;;;4.88;0.90;;;-0.80;99.90;;;;;;5025723;28;20121;-70
2023/03/11 04:34:14;;;;;;;4.50;1.05;;;-1.40;99.90;;;;;;5007672;28;20037;-68
2023/03/11 04:36:39;;;;;;;3.25;0.90;;;-1.50;99.90;;;;;;5026773;28;20041;-64
2023/03/11 04:39:06;;;;;;;6.75;1.08;;;-1.40;99.90;;;;;;5026338;28;20132;-63
2023/03/11 04:41:32;;;;;;;3.85;1.13;;;-1.30;99.90;;;;;;5025507;28;20048;-70
2023/03/11 04:44:00;;;;;;;3.97;1.00;;;-1.10;99.90;;;;;;5008489;28;20037;-68
2023/03/11 04:46:26;;;;;;;3.40;1.13;;;-1.00;99.90;;;;;;5019886;28;20450;-65
2023/03/11 04:48:51;;;;;;;4.22;1.15;;;-1.50;99.90;;;;;;5008432;28;20041;-67
2023/03/11 04:51:17;;;;;;;7.45;0.80;;;-1.40;99.90;;;;;;5025352;28;20652;-70
2023/03/11 04:53:43;;;;;;;5.70;0.93;;;-1.10;99.90;;;;;;5025972;28;20042;-70
2023/03/11 04:56:09;;;;;;;3.45;0.95;;;-1.20;99.90;;;;;;5008466;28;20037;-67
2023/03/11 04:58:34;;;;;;;4.50;0.88;;;-1.60;99.90;;;;;;5025781;28;20492;-66
2023/03/11 05:01:00;;;;;;;6.15;0.80;;;-1.40;99.90;;;;;;5025202;28;20069;-69
2023/03/11 05:03:25;;;;;;;4.00;0.80;;;-1.80;99.90;;;;;;5025948;28;20072;-62
2023/03/11 05:05:55;;;;;;;5.68;1.00;;;-1.50;99.90;;;;;;5025902;28;20480;-68
2023/03/11 05:08:22;;;;;;;3.50;0.75;;;-1.80;99.90;;;;;;5025527;28;20391;-62
2023/03/11 05:10:49;;;;;;;4.85;0.88;;;-1.60;99.90;;;;;;5026255;28;20044;-70
2023/03/11 05:13:15;;;;;;;2.33;0.80;;;-0.80;99.90;;;;;;5025671;28;20363;-69
2023/03/11 05:15:41;;;;;;;4.10;1.05;;;-1.70;99.90;;;;;;5024316;28;20064;-64
2023/03/11 05:18:07;;;;;;;4.88;0.90;;;-0.60;99.90;;;;;;5025507;28;20099;-64
2023/03/11 05:20:32;;;;;;;12.43;1.20;;;-2.20;99.90;;;;;;5025608;28;20159;-67
2023/03/11 05:22:58;;;;;;;4.15;1.02;;;-1.80;99.90;;;;;;5025241;28;20037;-69
2023/03/11 05:25:24;;;;;;;4.70;1.27;;;-2.30;99.90;;;;;;5026002;28;20033;-67
2023/03/11 05:27:50;;;;;;;6.35;1.17;;;-2.50;99.90;;;;;;5025357;28;20053;-63
2023/03/11 05:30:16;;;;;;;7.18;1.35;;;-2.20;99.90;;;;;;5024675;28;20038;-70
2023/03/11 05:32:42;;;;;;;4.10;1.23;;;-2.40;99.90;;;;;;5007423;28;20049;-70
2023/03/11 05:35:08;;;;;;;3.67;1.70;;;-2.20;99.90;;;;;;5025223;28;20159;-68
2023/03/11 05:37:34;;;;;;;8.85;1.70;;;-2.40;99.90;;;;;;5007641;28;20041;-69
2023/03/11 05:40:00;;;;;;;6.45;2.08;;;-2.10;99.90;;;;;;5024388;28;20064;-66
2023/03/11 05:42:25;;;;;;;8.95;1.95;;;-2.60;99.90;;;;;;5025154;28;20041;-70
2023/03/11 05:44:51;;;;;;;6.50;1.65;;;-2.60;99.90;;;;;;5019801;28;20519;-68
2023/03/11 05:47:17;;;;;;;7.07;1.80;;;-2.50;99.90;;;;;;5013359;28;20042;-67
2023/03/11 05:49:43;;;;;;;6.38;1.85;;;-0.20;99.90;;;;;;5005090;28;20053;-64
2023/03/11 05:52:08;;;;;;;6.53;2.15;;;-2.20;99.90;;;;;;4987634;28;20724;-62
2023/03/11 05:54:34;;;;;;;6.75;2.17;;;-2.20;99.90;;;;;;5005271;28;20042;-71
2023/03/11 05:57:00;;;;;;;5.55;1.80;;;-2.30;99.90;;;;;;5004777;28;20081;-71
2023/03/11 05:59:25;;;;;;;7.93;2.40;;;-2.20;99.90;;;;;;5003169;28;20128;-65
2023/03/11 06:01:51;;;;;;;4.05;1.92;;;-2.40;99.90;;;;;;5005128;28;20532;-68
2023/03/11 06:04:17;;;;;;;7.97;2.28;;;-2.50;99.90;;;;;;5004999;28;20041;-68
2023/03/11 06:06:42;;;;;;;3.90;1.73;;;-2.10;99.90;;;;;;5005177;28;20049;-68
2023/03/11 06:09:14;;;;;;;4.57;1.90;;;-2.20;99.90;;;;;;5005323;28;20121;-68
2023/03/11 06:11:41;;;;;;;6.65;1.80;;;-2.60;99.90;;;;;;5004997;28;20077;-70
2023/03/11 06:14:10;;;;;;;6.95;2.20;;;-2.20;99.90;;;;;;5006683;28;20081;-70
2023/03/11 06:16:36;;;;;;;6.57;1.55;;;-2.40;99.90;;;;;;5043218;28;20111;-64
2023/03/11 06:19:01;;;;;;;7.10;1.85;;;-2.60;99.90;;;;;;5043657;28;20037;-70
2023/03/11 06:21:27;;;;;;;6.40;1.90;;;-2.70;99.90;;;;;;5043108;28;20044;-71
2023/03/11 06:23:53;;;;;;;7.50;2.13;;;-2.50;99.90;;;;;;5044103;28;20041;-69
2023/03/11 06:26:20;;;;;;;7.18;1.88;;;-3.50;99.90;;;;;;5044321;28;20040;-64
2023/03/11 06:28:47;;;;;;;9.43;1.30;;;-2.20;99.90;;;;;;5044668;28;20120;-69
2023/03/11 06:31:19;;;;;;;8.00;1.77;;;-2.10;99.90;;;;;;5043693;28;20448;-62
2023/03/11 06:33:45;;;;;;;6.00;1.98;;;-2.10;99.90;;;;;;5044773;28;20045;-67
2023/03/11 06:36:13;;;;;;;5.60;2.38;;;-2.30;99.90;;;;;;5044078;28;20131;-66
2023/03/11 06:38:38;;;;;;;9.45;2.80;;;-2.10;99.90;;;;;;5043147;28;20371;-63
2023/03/11 06:41:05;;;;;;;6.97;2.55;;;-2.20;99.90;;;;;;5043336;28;20039;-68
2023/03/11 06:43:33;;;;;;;3.88;1.48;;;-0.60;99.90;;;;;;5025243;28;20332;-61
2023/03/11 06:45:59;;;;;;;8.90;2.10;;;-2.60;99.90;;;;;;5019482;28;20037;-66
2023/03/11 06:48:26;;;;;;;4.57;1.50;;;-2.10;99.90;;;;;;5004936;28;20053;-66
2023/03/11 06:50:56;;;;;;;6.55;1.60;;;-2.50;99.90;;;;;;5003665;28;20049;-64
2023/03/11 06:53:22;;;;;;;4.05;1.40;;;-2.50;99.90;;;;;;5003114;28;20041;-68
2023/03/11 06:56:03;;;;;;;3.55;1.27;;;-2.50;99.90;;;;;;5004333;28;20069;-60
2023/03/11 06:58:30;;;;;;;6.53;1.58;;;-2.50;99.90;;;;;;4988952;28;20112;-68
2023/03/11 07:01:00;;;;;;;4.88;1.40;;;-2.10;99.90;;;;;;5006733;28;20041;-71
2023/03/11 07:03:26;;;;;;;3.08;1.27;;;-1.80;99.90;;;;;;5007945;28;20053;-66
2023/03/11 07:05:52;;;;;;;4.38;1.30;;;-2.40;99.90;;;;;;5008500;28;20068;-71
2023/03/11 07:08:18;;;;;;;3.28;1.30;;;-2.40;99.90;;;;;;4990522;28;20101;-60
2023/03/11 07:10:43;;;;;;;8.10;1.60;;;-2.30;99.90;;;;;;5008767;28;20499;-71
2023/03/11 07:13:09;;;;;;;7.28;1.35;;;-1.70;99.90;;;;;;5008524;28;20049;-68
2023/03/11 07:15:35;;;;;;;8.52;1.52;;;-1.80;99.90;;;;;;5007212;28;20061;-61
2023/03/11 07:18:00;;;;;;;5.30;1.55;;;-1.90;99.90;;;;;;5008069;28;20235;-70
2023/03/11 07:20:26;;;;;;;5.03;1.70;;;-2.30;99.90;;;;;;5008494;28;20499;-69
2023/03/11 07:22:52;;;;;;;7.03;1.65;;;-2.20;99.90;;;;;;5007984;28;20480;-70
2023/03/11 07:25:18;;;;;;;8.40;1.35;;;-2.10;99.90;;;;;;5008003;28;20087;-65
2023/03/11 07:27:43;;;;;;;4.63;1.13;;;-1.80;99.90;;;;;;5008398;28;20558;-60
2023/03/11 07:30:10;;;;;;;7.10;1.88;;;-1.40;99.90;;;;;;5007259;28;20042;-70
2023/03/11 07:32:35;;;;;;;3.88;1.48;;;-1.90;99.90;;;;;;5007358;28;20085;-70
2023/03/11 07:35:01;;;;;;;6.32;1.85;;;-0.60;99.90;;;;;;5007289;28;20088;-66
2023/03/11 07:37:27;;;;;;;4.03;1.45;;;-1.30;99.90;;;;;;5007754;28;20042;-65
2023/03/11 07:39:52;;;;;;;3.85;1.52;;;0.40;99.90;;;;;;4990339;28;20081;-59
2023/03/11 07:42:18;;;;;;;6.13;2.08;;;-1.80;99.90;;;;;;5007367;28;20116;-68
2023/03/11 07:44:44;;;;;;;6.93;2.03;;;-1.40;99.90;;;;;;5009848;28;20041;-66
2023/03/11 07:47:09;;;;;;;3.42;1.45;;;-0.80;99.90;;;;;;5016053;28;20485;-57
2023/03/11 07:49:35;;;;;;;4.20;1.70;;;-0.40;99.90;;;;;;5007280;28;20050;-65
2023/03/11 07:52:01;;;;;;;8.48;1.83;;;-1.50;99.90;;;;;;5006611;28;20454;-68
2023/03/11 07:54:26;;;;;;;4.95;1.45;;;-1.40;99.90;;;;;;5007071;28;20394;-65
2023/03/11 07:56:52;;;;;;;5.28;1.58;;;-1.10;99.90;;;;;;5007250;28;20053;-61
2023/03/11 07:59:17;;;;;;;6.80;1.75;;;-0.80;99.90;;;;;;5006477;28;20435;-64
2023/03/11 08:01:46;;;;;;;4.70;1.45;;;-1.20;99.90;;;;;;5005739;28;20054;-65
2023/03/11 08:04:12;;;;;;;5.25;1.20;;;-0.60;99.90;;;;;;5007124;28;20441;-67
2023/03/11 08:06:40;;;;;;;5.20;1.35;;;-0.80;99.90;;;;;;5006141;28;20041;-60
2023/03/11 08:09:07;;;;;;;6.13;1.50;;;0.00;99.90;;;;;;5005838;28;20057;-66
2023/03/11 08:11:34;;;;;;;7.60;1.58;;;-0.30;99.90;;;;;;4988679;28;20169;-69
2023/03/11 08:14:00;;;;;;;6.38;1.40;;;-0.60;99.90;;;;;;5006172;28;20132;-68
2023/03/11 08:16:26;;;;;;;6.10;1.52;;;-0.20;99.90;;;;;;5005296;28;20129;-66
2023/03/11 08:18:52;;;;;;;8.43;1.40;;;-0.10;99.90;;;;;;5006642;28;20504;-68
2023/03/11 08:21:21;;;;;;;8.52;1.75;;;1.80;99.90;;;;;;5006464;28;20041;-61
2023/03/11 08:23:47;;;;;;;4.93;1.73;;;0.30;99.90;;;;;;5009209;28;20042;-66
2023/03/11 08:26:20;;;;;;;4.97;1.77;;;0.30;99.90;;;;;;5025682;28;20042;-62
2023/03/11 08:28:47;;;;;;;6.22;1.65;;;1.10;99.90;;;;;;5026200;28;20504;-68
2023/03/11 08:31:15;;;;;;;8.50;1.75;;;0.40;99.90;;;;;;5024208;28;20045;-65
2023/03/11 08:33:42;;;;;;;5.97;1.80;;;0.10;99.90;;;;;;5025919;28;20179;-72
2023/03/11 08:36:08;;;;;;;5.25;1.48;;;0.60;99.90;;;;;;5025901;28;20037;-70
2023/03/11 08:38:33;;;;;;;5.63;1.60;;;0.50;99.90;;;;;;5025573;28;20068;-67
2023/03/11 08:40:59;;;;;;;5.38;1.77;;;0.30;99.90;;;;;;5025337;28;20512;-65
2023/03/11 08:43:25;;;;;;;5.72;1.60;;;0.70;99.90;;;;;;5025693;28;20045;-71
2023/03/11 08:45:51;;;;;;;6.25;1.70;;;0.80;99.90;;;;;;5019002;28;20048;-71
2023/03/11 08:48:16;;;;;;;7.78;1.48;;;0.80;99.90;;;;;;5006701;28;20050;-73
2023/03/11 08:50:43;;;;;;;4.20;1.55;;;0.80;99.90;;;;;;5005724;28;20085;-67
2023/03/11 08:53:08;;;;;;;5.20;2.03;;;1.50;99.90;;;;;;5005617;28;20049;-60
2023/03/11 08:55:34;;;;;;;7.95;2.08;;;1.70;99.90;;;;;;5006513;28;20161;-74
2023/03/11 08:58:00;;;;;;;7.95;1.92;;;1.20;99.90;;;;;;5005478;28;20042;-76
2023/03/11 09:00:25;;;;;;;6.30;1.50;;;1.30;99.90;;;;;;5005243;28;20496;-66
2023/03/11 09:02:51;;;;;;;6.05;1.80;;;1.10;99.90;;;;;;5004875;28;20424;-70
2023/03/11 09:05:17;;;;;;;5.45;1.95;;;1.50;99.90;;;;;;5004632;28;20133;-64
2023/03/11 09:07:43;;;;;;;5.35;1.13;;;1.20;99.90;;;;;;5005237;28;20084;-72
2023/03/11 09:10:12;;;;;;;8.43;2.22;;;1.50;99.90;;;;;;5005232;28;20073;-75
2023/03/11 09:12:38;;;;;;;6.28;1.75;;;1.50;99.90;;;;;;4987811;28;20060;-68
2023/03/11 09:15:04;;;;;;;5.68;1.83;;;1.60;99.90;;;;;;5004834;28;20050;-73
2023/03/11 09:17:30;;;;;;;5.82;2.10;;;1.50;99.90;;;;;;5006227;28;20396;-70
2023/03/11 09:19:56;;;;;;;7.30;1.92;;;1.90;99.90;;;;;;5006156;28;20041;-65
2023/03/11 09:22:21;;;;;;;6.47;1.75;;;2.60;99.90;;;;;;5004724;28;20130;-65
2023/03/11 09:24:47;;;;;;;5.15;1.58;;;2.70;99.90;;;;;;5006200;28;20045;-71
2023/03/11 09:27:14;;;;;;;6.97;1.80;;;3.60;99.90;;;;;;5006325;28;20572;-70
2023/03/11 09:29:40;;;;;;;7.05;1.80;;;3.90;99.90;;;;;;5004924;28;20104;-73
2023/03/11 09:32:06;;;;;;;6.00;1.73;;;4.80;99.90;;;;;;5004794;28;20521;-66
2023/03/11 09:34:32;;;;;;;5.68;1.30;;;4.80;99.90;;;;;;5005542;28;20042;-67
2023/03/11 09:36:57;;;;;;;4.28;1.42;;;5.20;99.90;;;;;;4988095;28;20532;-66
2023/03/11 09:39:23;;;;;;;5.10;1.55;;;5.10;99.90;;;;;;5005284;28;20038;-73
2023/03/11 09:42:04;;;;;;;4.90;1.63;;;5.60;99.90;;;;;;5005920;28;20137;-73
2023/03/11 09:44:40;;;;;;;6.22;1.50;;;6.00;99.90;;;;;;5006712;28;20128;-63
2023/03/11 09:47:20;;;;;;;6.68;1.10;;;5.60;99.90;;;;;;5021772;28;20037;-65
2023/03/11 09:50:25;;;;;;;9.20;1.60;;;5.20;99.90;;;;;;5025342;28;20132;-68
2023/03/11 09:53:13;;;;;;;4.78;1.40;;;5.30;99.90;;;;;;4995017;28;20073;-68
2023/03/11 09:55:45;;;;;;;4.15;1.38;;;5.30;99.90;;;;;;5024999;28;20056;-64
2023/03/11 09:58:26;;;;;;;5.88;1.80;;;5.60;99.90;;;;;;5025049;28;20038;-70
2023/03/11 10:00:51;;;;;;;5.78;1.50;;;6.00;99.90;;;;;;5006395;28;20057;-69
2023/03/11 10:03:38;;;;;;;5.35;1.20;;;6.00;99.90;;;;;;5024949;28;20050;-63
2023/03/11 10:06:25;;;;;;;5.38;1.40;;;6.00;99.90;;;;;;5024083;28;20124;-72
2023/03/11 10:08:59;;;;;;;6.13;1.30;;;6.40;99.90;;;;;;5024691;28;20528;-71
2023/03/11 10:11:36;;;;;;;5.20;1.30;;;6.40;99.90;;;;;;5024727;28;20152;-71
2023/03/11 10:14:08;;;;;;;5.85;1.35;;;6.40;99.90;;;;;;5024329;28;20045;-68
2023/03/11 10:16:43;;;;;;;4.57;1.33;;;6.20;99.90;;;;;;5023728;28;20060;-69
2023/03/11 10:19:33;;;;;;;8.32;1.33;;;6.40;99.90;;;;;;5024735;28;20045;-68
2023/03/11 10:22:10;;;;;;;4.00;1.10;;;6.10;99.90;;;;;;5024305;28;20403;-68
2023/03/11 10:24:54;;;;;;;8.70;1.73;;;6.00;99.90;;;;;;5007017;28;20057;-69
2023/03/11 10:27:29;;;;;;;6.90;1.65;;;6.20;99.90;;;;;;5023690;28;20049;-71
2023/03/11 10:30:01;;;;;;;6.25;1.73;;;6.20;99.90;;;;;;5023913;28;20045;-67
2023/03/11 10:32:39;;;;;;;3.20;1.10;;;6.00;99.90;;;;;;5023623;28;20050;-69
2023/03/11 10:35:19;;;;;;;6.75;1.50;;;6.20;99.90;;;;;;5024161;28;20152;-62
2023/03/11 10:37:57;;;;;;;5.90;1.80;;;6.50;99.90;;;;;;5023999;28;20041;-66
2023/03/11 10:40:31;;;;;;;6.90;1.20;;;6.20;99.90;;;;;;5006307;28;20049;-64
2023/03/11 10:43:02;;;;;;;5.57;1.48;;;6.40;99.90;;;;;;5024448;28;20049;-64
2023/03/11 10:45:35;;;;;;;5.22;1.25;;;6.20;99.90;;;;;;5017423;28;20046;-68
2023/03/11 10:48:00;;;;;;;4.88;1.60;;;5.60;99.90;;;;;;5009092;28;20045;-66
2023/03/11 10:50:26;;;;;;;5.20;1.10;;;5.70;99.90;;;;;;5004760;28;20038;-69
2023/03/11 10:53:07;;;;;;;5.53;1.30;;;5.50;99.90;;;;;;5004402;28;20029;-70
2023/03/11 10:55:34;;;;;;;4.13;1.40;;;5.60;99.90;;;;;;5005008;28;20046;-69
2023/03/11 10:58:14;;;;;;;4.90;1.20;;;5.30;99.90;;;;;;5004707;28;20038;-66
2023/03/11 11:00:40;;;;;;;4.45;1.25;;;5.10;99.90;;;;;;4986454;28;20056;-69
2023/03/11 11:03:17;;;;;;;2.67;1.10;;;5.50;99.90;;;;;;5004565;28;20058;-63
2023/03/11 11:05:43;;;;;;;3.83;1.35;;;5.00;99.90;;;;;;5004604;28;20081;-69
2023/03/11 11:08:15;;;;;;;7.70;1.67;;;5.20;99.90;;;;;;5004857;28;20081;-67
2023/03/11 11:10:54;;;;;;;7.28;1.30;;;5.40;99.90;;;;;;5003913;28;20041;-65
2023/03/11 11:13:25;;;;;;;6.05;1.33;;;5.90;99.90;;;;;;5004617;28;20088;-70
2023/03/11 11:16:14;;;;;;;2.80;1.05;;;5.90;99.90;;;;;;5003987;28;20054;-65
2023/03/11 11:18:48;;;;;;;4.70;1.45;;;5.90;99.90;;;;;;5003637;28;20050;-63
2023/03/11 11:21:21;;;;;;;4.38;1.38;;;6.30;99.90;;;;;;5004102;28;20228;-63
2023/03/11 11:23:49;;;;;;;8.18;2.00;;;6.20;99.90;;;;;;5004253;28;20065;-64
2023/03/11 11:26:22;;;;;;;7.10;1.30;;;6.50;99.90;;;;;;5004042;28;20068;-63
2023/03/11 11:29:13;;;;;;;6.18;1.77;;;6.10;99.90;;;;;;5002747;28;20041;-66
2023/03/11 11:31:42;;;;;;;6.20;1.13;;;6.30;99.90;;;;;;5003882;28;20089;-66
2023/03/11 11:34:29;;;;;;;3.55;1.15;;;6.10;99.90;;;;;;5003105;28;20046;-65
2023/03/11 11:37:01;;;;;;;4.68;1.30;;;6.40;99.90;;;;;;4985843;28;20065;-65
2023/03/11 11:39:31;;;;;;;4.43;1.20;;;6.50;99.90;;;;;;5002966;28;20042;-66
2023/03/11 11:41:58;;;;;;;4.95;1.15;;;6.20;99.90;;;;;;5002878;28;20041;-64
2023/03/11 11:44:33;;;;;;;6.32;1.20;;;6.10;99.90;;;;;;5004874;28;20049;-66
2023/03/11 11:47:09;;;;;;;5.78;1.38;;;6.10;99.90;;;;;;5022988;28;20056;-63
2023/03/11 11:49:36;;;;;;;5.10;1.30;;;6.40;99.90;;;;;;5027481;28;20057;-64
2023/03/11 11:52:13;;;;;;;5.68;1.73;;;6.50;99.90;;;;;;5027319;28;20033;-66
2023/03/11 11:54:49;;;;;;;6.85;1.10;;;6.40;99.90;;;;;;5027348;28;20396;-65
2023/03/11 11:57:17;;;;;;;5.13;1.20;;;6.50;99.90;;;;;;5009176;28;20046;-65
2023/03/11 11:59:43;;;;;;;4.10;1.08;;;6.10;99.90;;;;;;4991664;28;20049;-65
2023/03/11 12:02:20;;;;;;;5.93;1.95;;;6.30;99.90;;;;;;5026569;28;20369;-62
2023/03/11 12:04:56;;;;;;;5.15;1.60;;;6.20;99.90;;;;;;5026940;28;20503;-62
2023/03/11 12:07:58;;;;;;;5.75;1.52;;;6.20;99.90;;;;;;5026929;28;20110;-63
2023/03/11 12:10:30;;;;;;;8.27;1.60;;;6.20;99.90;;;;;;5026299;28;20455;-65
2023/03/11 12:13:27;;;;;;;6.28;1.50;;;6.30;99.90;;;;;;5026616;28;20083;-64
2023/03/11 12:16:14;;;;;;;4.85;1.52;;;6.30;99.90;;;;;;5026429;28;20053;-64
2023/03/11 12:18:54;;;;;;;2.97;1.08;;;6.40;99.90;;;;;;5025975;28;20083;-64
2023/03/11 12:21:42;;;;;;;6.97;1.50;;;6.70;99.90;;;;;;5026126;28;20041;-62
2023/03/11 12:24:29;;;;;;;6.97;1.40;;;6.50;99.90;;;;;;5026087;28;20103;-65
2023/03/11 12:27:01;;;;;;;5.72;1.38;;;6.30;99.90;;;;;;5026601;28;20060;-62
2023/03/11 12:29:45;;;;;;;6.50;1.40;;;6.20;99.90;;;;;;5025073;28;20137;-64
2023/03/11 12:32:29;;;;;;;7.60;1.65;;;6.20;99.90;;;;;;5025863;28;20403;-64
2023/03/11 12:35:23;;;;;;;4.22;1.38;;;6.10;99.90;;;;;;5025575;28;20041;-64
2023/03/11 12:38:27;;;;;;;8.23;1.55;;;6.10;99.90;;;;;;4998223;28;20057;-64
2023/03/11 12:41:04;;;;;;;6.13;1.30;;;6.20;99.90;;;;;;4945279;28;20039;-67
2023/03/11 12:43:32;;;;;;;4.70;1.40;;;6.20;99.90;;;;;;5016724;28;20057;-63
2023/03/11 12:45:59;;;;;;;6.40;1.17;;;6.20;99.90;;;;;;5016629;28;20133;-65
2023/03/11 12:48:40;;;;;;;4.10;1.35;;;6.40;99.90;;;;;;5024418;28;20049;-64
2023/03/11 12:51:26;;;;;;;7.35;1.67;;;6.40;99.90;;;;;;5026257;28;20133;-61
2023/03/11 12:53:54;;;;;;;5.40;1.10;;;6.30;99.90;;;;;;5025447;28;20045;-67
2023/03/11 12:57:18;;;;;;;4.25;1.17;;;6.00;99.90;;;;;;5025634;28;20056;-60
2023/03/11 13:00:18;;;;;;;6.53;1.38;;;6.20;99.90;;;;;;4932065;29;20051;-63
2023/03/11 13:02:49;;;;;;;3.17;1.20;;;6.20;99.90;;;;;;4944907;28;20163;-68
2023/03/11 13:05:17;;;;;;;2.88;1.50;;;6.10;99.90;;;;;;5014127;28;20054;-68